AirNav   Air Wisconsin Up To $57,000 Bonus
 
 812 users online  

WI76 Maggies Farm LLC Airport
Fort Atkinson, Wisconsin, USA

GOING TO FORT ATKINSON?


FAA INFORMATION EFFECTIVE 26 JANUARY 2023

Location

FAA Identifier: WI76
Lat/Long: 42-56-55.0200N 088-46-33.3770W
42-56.917000N 088-46.556283W
42.9486167,-88.7759381
(estimated)
Elevation: 836 ft. / 255 m (estimated)
Variation: 00W (1985)
From city: 3 miles NE of FORT ATKINSON, WI
Time zone: UTC -6 (UTC -5 during Daylight Saving Time)
Zip code: 53549

Airport Operations

Airport use: Private use. Permission required prior to landing
Activation date: 05/1970
Control tower: no
ARTCC: CHICAGO CENTER
FSS: GREEN BAY FLIGHT SERVICE STATION
Attendance: 
Wind indicator: yes
Segmented circle: no

Airport Communications

WX AWOS-3 at RYV (13 nm N): 119.975 (920-261-0734)
WX AWOS-3PT at 57C (20 nm SE): 118.125 (262-642-1845)

Nearby radio navigation aids

VOR radial/distance  VOR name  Freq  Var
BAEr243/23.8BADGER VOR/DME116.4002E
MSNr112/27.4MADISON VORTAC108.6003E
JVLr029/27.6JANESVILLE VOR/DME114.3003E

 
NDB name  Hdg/Dist  Freq  Var  ID
ROCK RIVER190/13.737101WRYV .-. -.-- ...-

Airport Services

Airframe service: NONE
Powerplant service: NONE

Runway Information

Runway 17/35

Dimensions: 1700 x 50 ft. / 518 x 15 m
Surface: turf
RUNWAY 17  RUNWAY 35
Traffic pattern: leftleft

Airport Ownership and Management from official FAA records

Ownership: Privately-owned
Owner: JONATHAN LIGHTNER
N2926 WILL RD
JEFFERSON, WI 53549
Phone 920-636-9089
Manager: JONATHAN LIGHTNER
N2926 WILL RD
JEFFERSON, WI 53549
Phone 920-636-9089

Airport Operational Statistics

Aircraft based on the field: 1
Single engine airplanes: 1
    

Additional Remarks

FOR CD CTC CHICAGO ARTCC AT 630-906-8921.

Instrument Procedures

There are no published instrument procedures at WI76.

Some nearby airports with instrument procedures:

61C - Fort Atkinson Municipal Airport (2 nm NW)
KRYV - Watertown Municipal Airport (13 nm N)
57C - East Troy Municipal Airport (20 nm SE)
87Y - Blackhawk Airfield (20 nm NW)
KJVL - Southern Wisconsin Regional Airport (23 nm SW)
 
Loc | Ops | Rwys | IFR | FBO | Links
Com | Nav | Svcs | Stats | Notes
Area around WI76 (Maggies Farm LLC Airport)
 
Road maps at: MapQuest Bing Google
 
Aerial photo
No photo
 
Sectional chart

 
Airport distance calculator
Flying to Maggies Farm LLC Airport? Find the distance to fly.

From to WI76

Sunrise and sunset
Times for 27-Jan-2023
 Local
(UTC-6)
 Zulu
(UTC)
Morning civil twilight06:4612:46
Sunrise07:1613:16
Sunset17:0023:00
Evening civil twilight17:3023:30

Current date and time
Zulu (UTC)  27-Jan-2023 12:19:38
Local (UTC-6)  27-Jan-2023 06:19:38
 
METAR
KRYV 
13nm N 
271155Z AUTO 15007KT 10SM SCT120 M10/M14 A2974 RMK AO2 T11051140 11105 21136
K57C 
20nm SE 
271155Z AUTO 17006KT 10SM CLR M12/M14 A2980 RMK AO2 T11191144 11119 21135
KJVL 
23nm SW 
271145Z 18014KT 10SM SCT120 M10/M12 A2978
KBUU 
26nm SE 
271155Z AUTO 17004KT 10SM CLR M11/M14 A2981 RMK AO2 T11151138 11115 21146 PWINO
TAF
KJVL 
23nm SW 
271127Z 2712/2812 18013G21KT P6SM OVC090 FM271400 19017G26KT 3SM -SN BR OVC035 FM271600 21017G27KT 1SM -SN BR OVC010 FM271800 21017G26KT 3SM -SN OVC009 FM272200 27015G24KT P6SM VCSH OVC014 FM280500 28010KT P6SM BKN160
KMSN 
28nm NW 
271127Z 2712/2812 18014G22KT P6SM VCSH OVC080 FM271300 19016G26KT 2SM -SN BR OVC045 FM271700 21015G27KT 1SM -SN BR OVC013 FM271800 22015G25KT P6SM -SN OVC011 FM272200 28014G24KT P6SM VCSH BKN022 FM280900 29005KT P6SM BKN060
NOTAMs
Click for the latest NOTAMs
NOTAMs are issued by the DoD/FAA and will open in a separate window not controlled by AirNav.

 

 
 

Would you like to see your business listed on this page?

 If your business provides an interesting product or service to pilots, flight crews, aircraft, or users of the Maggies Farm LLC Airport, you should consider listing it here.  To start the listing process, click on the button below
 
Add a business
 

Other Pages about Maggies Farm LLC Airport

Update a link
 
Copyright © AirNav, LLC. All rights reserved. Privacy Policy  Contact